sensor_id;sensor_type;location;lat;lon;timestamp;temperature;humidity
57857;DHT22;43683;48.650;9.290;2023-11-18T00:01:24;4.30;98.90
57857;DHT22;43683;48.650;9.290;2023-11-18T00:03:49;4.30;98.90
57857;DHT22;43683;48.650;9.290;2023-11-18T00:06:15;4.20;98.80
57857;DHT22;43683;48.650;9.290;2023-11-18T00:08:40;4.10;98.90
57857;DHT22;43683;48.650;9.290;2023-11-18T00:11:06;4.10;99.00
57857;DHT22;43683;48.650;9.290;2023-11-18T00:13:32;4.20;99.00
57857;DHT22;43683;48.650;9.290;2023-11-18T00:15:57;4.30;98.90
57857;DHT22;43683;48.650;9.290;2023-11-18T00:18:23;4.40;98.70
57857;DHT22;43683;48.650;9.290;2023-11-18T00:20:49;4.50;98.50
57857;DHT22;43683;48.650;9.290;2023-11-18T00:23:19;4.50;98.40
57857;DHT22;43683;48.650;9.290;2023-11-18T00:25:44;4.60;98.30
57857;DHT22;43683;48.650;9.290;2023-11-18T00:28:11;4.60;98.20
57857;DHT22;43683;48.650;9.290;2023-11-18T00:30:37;4.70;98.20
57857;DHT22;43683;48.650;9.290;2023-11-18T00:33:02;4.70;98.10
57857;DHT22;43683;48.650;9.290;2023-11-18T00:35:28;4.70;98.10
57857;DHT22;43683;48.650;9.290;2023-11-18T00:37:57;4.60;98.20
57857;DHT22;43683;48.650;9.290;2023-11-18T00:40:24;4.50;98.40
57857;DHT22;43683;48.650;9.290;2023-11-18T00:42:50;4.40;98.50
57857;DHT22;43683;48.650;9.290;2023-11-18T00:45:16;4.40;98.60
57857;DHT22;43683;48.650;9.290;2023-11-18T00:47:41;4.40;98.60
57857;DHT22;43683;48.650;9.290;2023-11-18T00:50:08;4.40;98.60
57857;DHT22;43683;48.650;9.290;2023-11-18T00:52:34;4.50;98.50
57857;DHT22;43683;48.650;9.290;2023-11-18T00:55:00;4.50;98.50
57857;DHT22;43683;48.650;9.290;2023-11-18T00:57:26;4.50;98.40
57857;DHT22;43683;48.650;9.290;2023-11-18T00:59:52;4.60;98.40
57857;DHT22;43683;48.650;9.290;2023-11-18T01:02:18;4.70;98.30
57857;DHT22;43683;48.650;9.290;2023-11-18T01:04:44;4.70;98.20
57857;DHT22;43683;48.650;9.290;2023-11-18T01:07:11;4.70;98.20
57857;DHT22;43683;48.650;9.290;2023-11-18T01:09:37;4.80;98.10
57857;DHT22;43683;48.650;9.290;2023-11-18T01:12:04;4.80;98.10
57857;DHT22;43683;48.650;9.290;2023-11-18T01:14:31;4.80;98.00
57857;DHT22;43683;48.650;9.290;2023-11-18T01:16:57;4.80;98.00
57857;DHT22;43683;48.650;9.290;2023-11-18T01:19:24;4.80;98.00
57857;DHT22;43683;48.650;9.290;2023-11-18T01:21:49;4.80;98.00
57857;DHT22;43683;48.650;9.290;2023-11-18T01:24:15;4.80;98.10
57857;DHT22;43683;48.650;9.290;2023-11-18T01:26:41;4.70;98.10
57857;DHT22;43683;48.650;9.290;2023-11-18T01:29:07;4.80;98.10
57857;DHT22;43683;48.650;9.290;2023-11-18T01:31:33;4.80;98.10
57857;DHT22;43683;48.650;9.290;2023-11-18T01:33:58;4.80;98.10
57857;DHT22;43683;48.650;9.290;2023-11-18T01:36:25;4.80;98.10
57857;DHT22;43683;48.650;9.290;2023-11-18T01:38:50;4.90;98.10
57857;DHT22;43683;48.650;9.290;2023-11-18T01:41:16;4.80;98.00
57857;DHT22;43683;48.650;9.290;2023-11-18T01:43:45;4.90;98.00
57857;DHT22;43683;48.650;9.290;2023-11-18T01:46:11;4.90;98.00
57857;DHT22;43683;48.650;9.290;2023-11-18T01:48:38;4.80;98.00
57857;DHT22;43683;48.650;9.290;2023-11-18T01:51:05;4.80;98.00
57857;DHT22;43683;48.650;9.290;2023-11-18T01:53:42;4.90;98.00
57857;DHT22;43683;48.650;9.290;2023-11-18T01:56:09;4.90;98.00
57857;DHT22;43683;48.650;9.290;2023-11-18T01:58:37;4.80;98.00
57857;DHT22;43683;48.650;9.290;2023-11-18T02:01:03;4.80;97.90
57857;DHT22;43683;48.650;9.290;2023-11-18T02:03:33;4.80;98.00
57857;DHT22;43683;48.650;9.290;2023-11-18T02:05:59;4.90;98.00
57857;DHT22;43683;48.650;9.290;2023-11-18T02:08:25;4.90;98.00
57857;DHT22;43683;48.650;9.290;2023-11-18T02:10:58;4.90;98.00
57857;DHT22;43683;48.650;9.290;2023-11-18T02:13:34;4.90;98.00
57857;DHT22;43683;48.650;9.290;2023-11-18T02:16:03;4.80;98.00
57857;DHT22;43683;48.650;9.290;2023-11-18T02:18:30;4.80;98.00
57857;DHT22;43683;48.650;9.290;2023-11-18T02:20:56;4.80;98.00
57857;DHT22;43683;48.650;9.290;2023-11-18T02:23:25;4.80;98.00
57857;DHT22;43683;48.650;9.290;2023-11-18T02:25:54;4.80;97.90
57857;DHT22;43683;48.650;9.290;2023-11-18T02:28:21;4.60;98.00
57857;DHT22;43683;48.650;9.290;2023-11-18T02:30:47;4.60;98.20
57857;DHT22;43683;48.650;9.290;2023-11-18T02:35:53;4.40;98.50
57857;DHT22;43683;48.650;9.290;2023-11-18T02:38:30;4.30;98.60
57857;DHT22;43683;48.650;9.290;2023-11-18T02:40:58;4.20;98.80
57857;DHT22;43683;48.650;9.290;2023-11-18T02:43:26;4.20;98.90
57857;DHT22;43683;48.650;9.290;2023-11-18T02:45:54;4.20;98.90
57857;DHT22;43683;48.650;9.290;2023-11-18T02:48:21;4.30;98.90
57857;DHT22;43683;48.650;9.290;2023-11-18T02:50:47;4.30;98.70
57857;DHT22;43683;48.650;9.290;2023-11-18T02:53:12;4.30;98.50
57857;DHT22;43683;48.650;9.290;2023-11-18T02:55:38;4.40;98.50
57857;DHT22;43683;48.650;9.290;2023-11-18T02:58:06;4.40;98.40
57857;DHT22;43683;48.650;9.290;2023-11-18T03:00:35;4.40;98.30
57857;DHT22;43683;48.650;9.290;2023-11-18T03:03:03;4.40;98.30
57857;DHT22;43683;48.650;9.290;2023-11-18T03:05:30;4.40;98.20
57857;DHT22;43683;48.650;9.290;2023-11-18T03:07:55;4.50;98.20
57857;DHT22;43683;48.650;9.290;2023-11-18T03:10:23;4.50;98.20
57857;DHT22;43683;48.650;9.290;2023-11-18T03:12:52;4.50;98.20
57857;DHT22;43683;48.650;9.290;2023-11-18T03:15:19;4.40;98.20
57857;DHT22;43683;48.650;9.290;2023-11-18T03:17:45;4.40;98.30
57857;DHT22;43683;48.650;9.290;2023-11-18T03:20:16;4.20;98.40
57857;DHT22;43683;48.650;9.290;2023-11-18T03:22:43;4.20;98.50
57857;DHT22;43683;48.650;9.290;2023-11-18T03:25:09;4.10;98.50
57857;DHT22;43683;48.650;9.290;2023-11-18T03:27:35;4.00;98.60
57857;DHT22;43683;48.650;9.290;2023-11-18T03:30:01;3.90;98.70
57857;DHT22;43683;48.650;9.290;2023-11-18T03:32:26;3.90;98.80
57857;DHT22;43683;48.650;9.290;2023-11-18T03:34:52;3.90;98.80
57857;DHT22;43683;48.650;9.290;2023-11-18T03:37:17;3.80;98.90
57857;DHT22;43683;48.650;9.290;2023-11-18T03:39:45;3.90;99.00
57857;DHT22;43683;48.650;9.290;2023-11-18T03:42:10;3.90;99.30
57857;DHT22;43683;48.650;9.290;2023-11-18T03:44:36;3.90;98.90
57857;DHT22;43683;48.650;9.290;2023-11-18T03:47:03;3.90;98.80
57857;DHT22;43683;48.650;9.290;2023-11-18T03:49:28;3.90;98.70
57857;DHT22;43683;48.650;9.290;2023-11-18T03:51:54;3.80;98.50
57857;DHT22;43683;48.650;9.290;2023-11-18T03:54:20;3.70;98.50
57857;DHT22;43683;48.650;9.290;2023-11-18T03:56:45;3.70;98.50
57857;DHT22;43683;48.650;9.290;2023-11-18T03:59:11;3.80;98.50
57857;DHT22;43683;48.650;9.290;2023-11-18T04:01:36;3.80;98.50
57857;DHT22;43683;48.650;9.290;2023-11-18T04:04:02;3.90;98.50
57857;DHT22;43683;48.650;9.290;2023-11-18T04:06:29;3.90;98.40
57857;DHT22;43683;48.650;9.290;2023-11-18T04:08:55;4.00;98.40
57857;DHT22;43683;48.650;9.290;2023-11-18T04:11:20;4.00;98.30
57857;DHT22;43683;48.650;9.290;2023-11-18T04:13:46;4.10;98.30
57857;DHT22;43683;48.650;9.290;2023-11-18T04:16:12;4.10;98.30
57857;DHT22;43683;48.650;9.290;2023-11-18T04:18:42;4.20;98.30
57857;DHT22;43683;48.650;9.290;2023-11-18T04:21:09;4.20;98.30
57857;DHT22;43683;48.650;9.290;2023-11-18T04:23:36;4.20;98.30
57857;DHT22;43683;48.650;9.290;2023-11-18T04:26:03;4.20;98.30
57857;DHT22;43683;48.650;9.290;2023-11-18T04:28:29;4.30;98.30
57857;DHT22;43683;48.650;9.290;2023-11-18T04:30:55;4.30;98.30
57857;DHT22;43683;48.650;9.290;2023-11-18T04:33:20;4.10;98.30
57857;DHT22;43683;48.650;9.290;2023-11-18T04:35:46;4.00;98.40
57857;DHT22;43683;48.650;9.290;2023-11-18T04:38:12;3.80;98.60
57857;DHT22;43683;48.650;9.290;2023-11-18T04:40:38;3.70;98.70
57857;DHT22;43683;48.650;9.290;2023-11-18T04:43:06;3.60;98.80
57857;DHT22;43683;48.650;9.290;2023-11-18T04:45:32;3.60;98.90
57857;DHT22;43683;48.650;9.290;2023-11-18T04:47:58;3.60;99.00
57857;DHT22;43683;48.650;9.290;2023-11-18T04:50:24;3.60;99.00
57857;DHT22;43683;48.650;9.290;2023-11-18T04:52:50;3.60;99.00
57857;DHT22;43683;48.650;9.290;2023-11-18T04:55:16;3.70;99.00
57857;DHT22;43683;48.650;9.290;2023-11-18T04:57:42;3.70;99.00
57857;DHT22;43683;48.650;9.290;2023-11-18T05:00:07;3.70;99.00
57857;DHT22;43683;48.650;9.290;2023-11-18T05:02:39;3.70;98.90
57857;DHT22;43683;48.650;9.290;2023-11-18T05:05:05;3.80;98.80
57857;DHT22;43683;48.650;9.290;2023-11-18T05:07:32;3.80;98.70
57857;DHT22;43683;48.650;9.290;2023-11-18T05:09:58;3.90;98.70
57857;DHT22;43683;48.650;9.290;2023-11-18T05:12:23;3.90;98.60
57857;DHT22;43683;48.650;9.290;2023-11-18T05:14:49;4.00;98.50
57857;DHT22;43683;48.650;9.290;2023-11-18T05:17:15;4.10;98.50
57857;DHT22;43683;48.650;9.290;2023-11-18T05:19:41;4.10;98.40
57857;DHT22;43683;48.650;9.290;2023-11-18T05:22:08;4.20;98.40
57857;DHT22;43683;48.650;9.290;2023-11-18T05:24:34;4.20;98.30
57857;DHT22;43683;48.650;9.290;2023-11-18T05:27:00;4.20;98.30
57857;DHT22;43683;48.650;9.290;2023-11-18T05:29:28;4.30;98.30
57857;DHT22;43683;48.650;9.290;2023-11-18T05:31:54;4.30;98.30
57857;DHT22;43683;48.650;9.290;2023-11-18T05:34:22;4.30;98.30
57857;DHT22;43683;48.650;9.290;2023-11-18T05:36:48;4.30;98.40
57857;DHT22;43683;48.650;9.290;2023-11-18T05:39:16;4.30;98.40
57857;DHT22;43683;48.650;9.290;2023-11-18T05:41:42;4.30;98.40
57857;DHT22;43683;48.650;9.290;2023-11-18T05:44:11;4.30;98.40
57857;DHT22;43683;48.650;9.290;2023-11-18T05:46:43;4.20;98.40
57857;DHT22;43683;48.650;9.290;2023-11-18T05:49:12;4.20;98.40
57857;DHT22;43683;48.650;9.290;2023-11-18T05:51:39;4.20;98.50
57857;DHT22;43683;48.650;9.290;2023-11-18T05:54:06;4.20;98.50
57857;DHT22;43683;48.650;9.290;2023-11-18T05:56:32;4.20;98.50
57857;DHT22;43683;48.650;9.290;2023-11-18T05:58:57;4.20;98.50
57857;DHT22;43683;48.650;9.290;2023-11-18T06:01:25;4.20;98.50
57857;DHT22;43683;48.650;9.290;2023-11-18T06:03:53;4.10;98.60
57857;DHT22;43683;48.650;9.290;2023-11-18T06:06:19;4.00;98.60
57857;DHT22;43683;48.650;9.290;2023-11-18T06:08:46;4.00;98.70
57857;DHT22;43683;48.650;9.290;2023-11-18T06:11:13;3.90;98.80
57857;DHT22;43683;48.650;9.290;2023-11-18T06:13:44;3.80;98.90
57857;DHT22;43683;48.650;9.290;2023-11-18T06:16:22;3.80;99.00
57857;DHT22;43683;48.650;9.290;2023-11-18T06:18:50;3.80;99.10
57857;DHT22;43683;48.650;9.290;2023-11-18T06:21:18;3.70;99.10
57857;DHT22;43683;48.650;9.290;2023-11-18T06:23:45;3.80;99.10
57857;DHT22;43683;48.650;9.290;2023-11-18T06:26:13;3.80;99.00
57857;DHT22;43683;48.650;9.290;2023-11-18T06:28:40;3.80;99.00
57857;DHT22;43683;48.650;9.290;2023-11-18T06:31:06;3.80;98.90
57857;DHT22;43683;48.650;9.290;2023-11-18T06:33:45;3.80;98.90
57857;DHT22;43683;48.650;9.290;2023-11-18T06:38:39;3.90;98.80
57857;DHT22;43683;48.650;9.290;2023-11-18T06:41:12;3.90;98.70
57857;DHT22;43683;48.650;9.290;2023-11-18T06:43:39;4.00;98.70
57857;DHT22;43683;48.650;9.290;2023-11-18T06:46:25;4.10;98.60
57857;DHT22;43683;48.650;9.290;2023-11-18T06:48:52;4.10;98.40
57857;DHT22;43683;48.650;9.290;2023-11-18T06:51:21;4.00;98.40
57857;DHT22;43683;48.650;9.290;2023-11-18T06:53:50;4.00;98.40
57857;DHT22;43683;48.650;9.290;2023-11-18T06:56:16;3.90;98.40
57857;DHT22;43683;48.650;9.290;2023-11-18T06:58:41;3.80;98.50
57857;DHT22;43683;48.650;9.290;2023-11-18T07:01:08;3.80;98.60
57857;DHT22;43683;48.650;9.290;2023-11-18T07:03:35;3.70;98.70
57857;DHT22;43683;48.650;9.290;2023-11-18T07:06:04;3.70;98.80
57857;DHT22;43683;48.650;9.290;2023-11-18T07:08:31;3.70;98.90
57857;DHT22;43683;48.650;9.290;2023-11-18T07:10:57;3.80;98.90
57857;DHT22;43683;48.650;9.290;2023-11-18T07:13:22;3.70;98.90
57857;DHT22;43683;48.650;9.290;2023-11-18T07:15:51;3.80;99.00
57857;DHT22;43683;48.650;9.290;2023-11-18T07:18:19;3.80;99.10
57857;DHT22;43683;48.650;9.290;2023-11-18T07:20:48;3.80;99.20
57857;DHT22;43683;48.650;9.290;2023-11-18T07:23:14;4.00;99.60
57857;DHT22;43683;48.650;9.290;2023-11-18T07:25:39;4.20;99.60
57857;DHT22;43683;48.650;9.290;2023-11-18T07:28:04;4.40;99.90
57857;DHT22;43683;48.650;9.290;2023-11-18T07:30:30;4.60;99.90
57857;DHT22;43683;48.650;9.290;2023-11-18T07:32:56;4.80;99.90
57857;DHT22;43683;48.650;9.290;2023-11-18T07:35:25;5.00;99.90
57857;DHT22;43683;48.650;9.290;2023-11-18T07:37:52;5.20;99.90
57857;DHT22;43683;48.650;9.290;2023-11-18T07:40:18;5.20;99.90
57857;DHT22;43683;48.650;9.290;2023-11-18T07:42:56;5.40;99.90
57857;DHT22;43683;48.650;9.290;2023-11-18T07:45:22;5.60;99.90
57857;DHT22;43683;48.650;9.290;2023-11-18T07:47:49;5.80;99.90
57857;DHT22;43683;48.650;9.290;2023-11-18T07:50:19;5.80;99.90
57857;DHT22;43683;48.650;9.290;2023-11-18T07:52:46;5.90;99.90
57857;DHT22;43683;48.650;9.290;2023-11-18T07:55:13;6.00;99.90
57857;DHT22;43683;48.650;9.290;2023-11-18T07:57:39;6.10;99.90
57857;DHT22;43683;48.650;9.290;2023-11-18T08:00:06;6.30;99.80
57857;DHT22;43683;48.650;9.290;2023-11-18T08:02:35;6.30;99.40
57857;DHT22;43683;48.650;9.290;2023-11-18T08:05:02;6.40;99.00
57857;DHT22;43683;48.650;9.290;2023-11-18T08:07:28;6.20;98.60
57857;DHT22;43683;48.650;9.290;2023-11-18T08:09:54;6.20;98.50
57857;DHT22;43683;48.650;9.290;2023-11-18T08:12:19;6.20;98.50
57857;DHT22;43683;48.650;9.290;2023-11-18T08:14:45;6.20;98.40
57857;DHT22;43683;48.650;9.290;2023-11-18T08:17:12;6.20;98.40
57857;DHT22;43683;48.650;9.290;2023-11-18T08:19:38;6.20;98.30
57857;DHT22;43683;48.650;9.290;2023-11-18T08:22:04;6.30;98.30
57857;DHT22;43683;48.650;9.290;2023-11-18T08:24:31;6.40;98.30
57857;DHT22;43683;48.650;9.290;2023-11-18T08:26:59;6.50;98.20
57857;DHT22;43683;48.650;9.290;2023-11-18T08:29:24;6.60;98.10
57857;DHT22;43683;48.650;9.290;2023-11-18T08:31:53;6.70;97.90
57857;DHT22;43683;48.650;9.290;2023-11-18T08:34:19;6.70;97.60
57857;DHT22;43683;48.650;9.290;2023-11-18T08:36:44;6.70;97.40
57857;DHT22;43683;48.650;9.290;2023-11-18T08:39:10;6.80;97.20
57857;DHT22;43683;48.650;9.290;2023-11-18T08:41:36;6.80;97.10
57857;DHT22;43683;48.650;9.290;2023-11-18T08:44:01;6.80;96.90
57857;DHT22;43683;48.650;9.290;2023-11-18T08:46:27;6.80;96.80
57857;DHT22;43683;48.650;9.290;2023-11-18T08:48:53;6.80;96.70
57857;DHT22;43683;48.650;9.290;2023-11-18T08:51:21;6.90;96.60
57857;DHT22;43683;48.650;9.290;2023-11-18T08:53:46;7.00;96.50
57857;DHT22;43683;48.650;9.290;2023-11-18T08:56:13;7.00;96.40
57857;DHT22;43683;48.650;9.290;2023-11-18T08:58:44;7.00;96.30
57857;DHT22;43683;48.650;9.290;2023-11-18T09:01:10;7.10;96.20
57857;DHT22;43683;48.650;9.290;2023-11-18T09:03:39;7.20;96.10
57857;DHT22;43683;48.650;9.290;2023-11-18T09:06:09;7.20;96.00
57857;DHT22;43683;48.650;9.290;2023-11-18T09:08:47;7.10;96.00
57857;DHT22;43683;48.650;9.290;2023-11-18T09:11:18;7.20;96.40
57857;DHT22;43683;48.650;9.290;2023-11-18T09:13:46;7.20;96.30
57857;DHT22;43683;48.650;9.290;2023-11-18T09:16:15;7.40;96.60
57857;DHT22;43683;48.650;9.290;2023-11-18T09:18:43;7.70;96.70
57857;DHT22;43683;48.650;9.290;2023-11-18T09:21:12;8.00;96.60
57857;DHT22;43683;48.650;9.290;2023-11-18T09:23:45;8.20;96.60
57857;DHT22;43683;48.650;9.290;2023-11-18T09:26:13;8.30;96.60
57857;DHT22;43683;48.650;9.290;2023-11-18T09:28:40;8.20;96.50
57857;DHT22;43683;48.650;9.290;2023-11-18T09:31:07;8.20;96.60
57857;DHT22;43683;48.650;9.290;2023-11-18T09:33:37;8.30;96.60
57857;DHT22;43683;48.650;9.290;2023-11-18T09:36:07;8.40;96.50
57857;DHT22;43683;48.650;9.290;2023-11-18T09:38:37;8.40;96.20
57857;DHT22;43683;48.650;9.290;2023-11-18T09:41:06;8.50;96.00
57857;DHT22;43683;48.650;9.290;2023-11-18T09:43:33;8.60;95.50
57857;DHT22;43683;48.650;9.290;2023-11-18T09:46:06;8.70;95.30
57857;DHT22;43683;48.650;9.290;2023-11-18T09:48:50;8.70;95.00
57857;DHT22;43683;48.650;9.290;2023-11-18T09:51:27;8.90;94.60
57857;DHT22;43683;48.650;9.290;2023-11-18T09:53:59;8.90;94.30
57857;DHT22;43683;48.650;9.290;2023-11-18T09:56:45;9.00;94.00
57857;DHT22;43683;48.650;9.290;2023-11-18T09:59:33;9.00;93.80
57857;DHT22;43683;48.650;9.290;2023-11-18T10:02:03;9.00;93.50
57857;DHT22;43683;48.650;9.290;2023-11-18T10:04:36;9.00;93.50
57857;DHT22;43683;48.650;9.290;2023-11-18T10:07:03;8.90;93.30
57857;DHT22;43683;48.650;9.290;2023-11-18T10:09:29;8.90;93.30
57857;DHT22;43683;48.650;9.290;2023-11-18T10:12:02;9.00;93.20
57857;DHT22;43683;48.650;9.290;2023-11-18T10:14:34;9.10;93.00
57857;DHT22;43683;48.650;9.290;2023-11-18T10:17:04;9.30;92.60
57857;DHT22;43683;48.650;9.290;2023-11-18T10:19:57;9.40;92.30
57857;DHT22;43683;48.650;9.290;2023-11-18T10:22:26;9.50;91.90
57857;DHT22;43683;48.650;9.290;2023-11-18T10:24:53;9.40;92.10
57857;DHT22;43683;48.650;9.290;2023-11-18T10:27:27;9.50;92.00
57857;DHT22;43683;48.650;9.290;2023-11-18T10:29:57;9.70;91.60
57857;DHT22;43683;48.650;9.290;2023-11-18T10:32:23;9.70;91.50
57857;DHT22;43683;48.650;9.290;2023-11-18T10:34:56;9.80;91.50
57857;DHT22;43683;48.650;9.290;2023-11-18T10:37:22;9.80;91.50
57857;DHT22;43683;48.650;9.290;2023-11-18T10:39:48;9.80;91.40
57857;DHT22;43683;48.650;9.290;2023-11-18T10:42:20;9.80;91.20
57857;DHT22;43683;48.650;9.290;2023-11-18T10:44:58;9.80;90.90
57857;DHT22;43683;48.650;9.290;2023-11-18T10:47:28;9.80;90.60
57857;DHT22;43683;48.650;9.290;2023-11-18T10:49:54;9.70;90.80
57857;DHT22;43683;48.650;9.290;2023-11-18T10:52:24;9.80;90.70
57857;DHT22;43683;48.650;9.290;2023-11-18T10:55:00;9.80;90.60
57857;DHT22;43683;48.650;9.290;2023-11-18T10:57:32;9.90;90.50
57857;DHT22;43683;48.650;9.290;2023-11-18T11:00:03;9.90;90.40
57857;DHT22;43683;48.650;9.290;2023-11-18T11:02:38;10.00;90.50
57857;DHT22;43683;48.650;9.290;2023-11-18T11:05:10;10.00;90.60
57857;DHT22;43683;48.650;9.290;2023-11-18T11:07:45;10.00;90.50
57857;DHT22;43683;48.650;9.290;2023-11-18T11:10:11;9.90;90.40
57857;DHT22;43683;48.650;9.290;2023-11-18T11:12:49;9.90;90.30
57857;DHT22;43683;48.650;9.290;2023-11-18T11:15:26;9.90;90.00
57857;DHT22;43683;48.650;9.290;2023-11-18T11:17:57;9.90;89.90
57857;DHT22;43683;48.650;9.290;2023-11-18T11:20:37;9.90;90.00
57857;DHT22;43683;48.650;9.290;2023-11-18T11:23:21;9.90;89.80
57857;DHT22;43683;48.650;9.290;2023-11-18T11:26:13;9.90;89.30
57857;DHT22;43683;48.650;9.290;2023-11-18T11:29:01;10.00;89.50
57857;DHT22;43683;48.650;9.290;2023-11-18T11:31:39;10.00;89.10
57857;DHT22;43683;48.650;9.290;2023-11-18T11:34:26;10.10;89.10
57857;DHT22;43683;48.650;9.290;2023-11-18T11:36:53;10.00;89.00
57857;DHT22;43683;48.650;9.290;2023-11-18T11:39:20;10.00;89.30
57857;DHT22;43683;48.650;9.290;2023-11-18T11:41:52;10.00;89.30
57857;DHT22;43683;48.650;9.290;2023-11-18T11:44:22;9.90;89.20
57857;DHT22;43683;48.650;9.290;2023-11-18T11:46:54;9.90;89.30
57857;DHT22;43683;48.650;9.290;2023-11-18T11:49:22;9.90;89.30
57857;DHT22;43683;48.650;9.290;2023-11-18T11:52:19;9.90;89.20
57857;DHT22;43683;48.650;9.290;2023-11-18T11:54:56;9.90;88.60
57857;DHT22;43683;48.650;9.290;2023-11-18T11:57:28;9.90;88.50
57857;DHT22;43683;48.650;9.290;2023-11-18T11:59:55;9.80;88.90
57857;DHT22;43683;48.650;9.290;2023-11-18T12:02:30;9.90;88.80
57857;DHT22;43683;48.650;9.290;2023-11-18T12:04:58;9.90;88.60
57857;DHT22;43683;48.650;9.290;2023-11-18T12:07:27;9.80;88.70
57857;DHT22;43683;48.650;9.290;2023-11-18T12:09:57;9.80;88.30
57857;DHT22;43683;48.650;9.290;2023-11-18T12:12:24;9.80;88.40
57857;DHT22;43683;48.650;9.290;2023-11-18T12:14:57;9.60;88.40
57857;DHT22;43683;48.650;9.290;2023-11-18T12:17:26;9.50;88.50
57857;DHT22;43683;48.650;9.290;2023-11-18T12:19:54;9.50;88.80
57857;DHT22;43683;48.650;9.290;2023-11-18T12:22:24;9.50;88.90
57857;DHT22;43683;48.650;9.290;2023-11-18T12:27:44;9.50;89.50
57857;DHT22;43683;48.650;9.290;2023-11-18T12:33:03;9.40;89.60
57857;DHT22;43683;48.650;9.290;2023-11-18T12:38:30;9.40;89.10
57857;DHT22;43683;48.650;9.290;2023-11-18T12:41:05;9.40;89.00
57857;DHT22;43683;48.650;9.290;2023-11-18T12:43:48;9.40;88.80
57857;DHT22;43683;48.650;9.290;2023-11-18T12:46:57;9.40;88.60
57857;DHT22;43683;48.650;9.290;2023-11-18T12:49:38;9.40;88.20
57857;DHT22;43683;48.650;9.290;2023-11-18T12:52:11;9.30;88.80
57857;DHT22;43683;48.650;9.290;2023-11-18T12:54:44;9.30;89.00
57857;DHT22;43683;48.650;9.290;2023-11-18T12:57:16;9.20;89.00
57857;DHT22;43683;48.650;9.290;2023-11-18T12:59:43;9.20;89.00
57857;DHT22;43683;48.650;9.290;2023-11-18T13:02:11;9.20;89.00
57857;DHT22;43683;48.650;9.290;2023-11-18T13:04:57;9.20;89.20
57857;DHT22;43683;48.650;9.290;2023-11-18T13:07:24;9.20;89.60
57857;DHT22;43683;48.650;9.290;2023-11-18T13:09:50;9.20;89.70
57857;DHT22;43683;48.650;9.290;2023-11-18T13:12:17;9.10;89.80
57857;DHT22;43683;48.650;9.290;2023-11-18T13:14:46;9.00;90.00
57857;DHT22;43683;48.650;9.290;2023-11-18T13:17:15;8.90;90.20
57857;DHT22;43683;48.650;9.290;2023-11-18T13:19:44;8.90;90.30
57857;DHT22;43683;48.650;9.290;2023-11-18T13:22:13;8.80;90.30
57857;DHT22;43683;48.650;9.290;2023-11-18T13:24:40;8.80;90.40
57857;DHT22;43683;48.650;9.290;2023-11-18T13:27:08;8.70;90.40
57857;DHT22;43683;48.650;9.290;2023-11-18T13:29:37;8.70;90.40
57857;DHT22;43683;48.650;9.290;2023-11-18T13:32:06;8.70;90.50
57857;DHT22;43683;48.650;9.290;2023-11-18T13:34:34;8.70;90.50
57857;DHT22;43683;48.650;9.290;2023-11-18T13:37:03;8.60;90.50
57857;DHT22;43683;48.650;9.290;2023-11-18T13:39:29;8.60;90.60
57857;DHT22;43683;48.650;9.290;2023-11-18T13:41:57;8.50;90.70
57857;DHT22;43683;48.650;9.290;2023-11-18T13:44:38;8.50;90.80
57857;DHT22;43683;48.650;9.290;2023-11-18T13:47:07;8.40;90.90
57857;DHT22;43683;48.650;9.290;2023-11-18T13:49:40;8.40;91.00
57857;DHT22;43683;48.650;9.290;2023-11-18T13:52:06;8.30;91.00
57857;DHT22;43683;48.650;9.290;2023-11-18T13:54:35;8.30;91.10
57857;DHT22;43683;48.650;9.290;2023-11-18T13:57:01;8.30;91.10
57857;DHT22;43683;48.650;9.290;2023-11-18T13:59:28;8.30;91.20
57857;DHT22;43683;48.650;9.290;2023-11-18T14:01:54;8.30;91.20
57857;DHT22;43683;48.650;9.290;2023-11-18T14:04:24;8.20;91.10
57857;DHT22;43683;48.650;9.290;2023-11-18T14:06:57;8.20;91.10
57857;DHT22;43683;48.650;9.290;2023-11-18T14:09:22;8.20;91.10
57857;DHT22;43683;48.650;9.290;2023-11-18T14:11:53;8.20;91.10
57857;DHT22;43683;48.650;9.290;2023-11-18T14:14:23;8.20;91.10
57857;DHT22;43683;48.650;9.290;2023-11-18T14:16:51;8.20;91.10
57857;DHT22;43683;48.650;9.290;2023-11-18T14:19:19;8.20;91.10
57857;DHT22;43683;48.650;9.290;2023-11-18T14:21:45;8.20;91.00
57857;DHT22;43683;48.650;9.290;2023-11-18T14:24:11;8.20;91.00
57857;DHT22;43683;48.650;9.290;2023-11-18T14:26:40;8.20;90.90
57857;DHT22;43683;48.650;9.290;2023-11-18T14:29:06;8.10;90.70
57857;DHT22;43683;48.650;9.290;2023-11-18T14:31:33;8.10;90.70
57857;DHT22;43683;48.650;9.290;2023-11-18T14:34:03;8.10;90.70
57857;DHT22;43683;48.650;9.290;2023-11-18T14:36:29;8.00;90.70
57857;DHT22;43683;48.650;9.290;2023-11-18T14:38:55;7.90;90.70
57857;DHT22;43683;48.650;9.290;2023-11-18T14:41:21;7.90;90.70
57857;DHT22;43683;48.650;9.290;2023-11-18T14:43:52;7.90;90.70
57857;DHT22;43683;48.650;9.290;2023-11-18T14:46:18;7.90;90.70
57857;DHT22;43683;48.650;9.290;2023-11-18T14:48:44;7.80;90.70
57857;DHT22;43683;48.650;9.290;2023-11-18T14:51:10;7.80;90.70
57857;DHT22;43683;48.650;9.290;2023-11-18T14:53:36;7.70;90.70
57857;DHT22;43683;48.650;9.290;2023-11-18T14:56:03;7.70;90.80
57857;DHT22;43683;48.650;9.290;2023-11-18T14:58:31;7.70;90.80
57857;DHT22;43683;48.650;9.290;2023-11-18T15:00:58;7.70;90.80
57857;DHT22;43683;48.650;9.290;2023-11-18T15:03:25;7.60;90.70
57857;DHT22;43683;48.650;9.290;2023-11-18T15:05:50;7.60;90.80
57857;DHT22;43683;48.650;9.290;2023-11-18T15:08:16;7.60;90.80
57857;DHT22;43683;48.650;9.290;2023-11-18T15:10:42;7.60;90.80
57857;DHT22;43683;48.650;9.290;2023-11-18T15:13:08;7.60;90.80
57857;DHT22;43683;48.650;9.290;2023-11-18T15:15:44;7.60;90.80
57857;DHT22;43683;48.650;9.290;2023-11-18T15:18:13;7.60;90.80
57857;DHT22;43683;48.650;9.290;2023-11-18T15:20:43;7.60;90.80
57857;DHT22;43683;48.650;9.290;2023-11-18T15:23:13;7.60;90.90
57857;DHT22;43683;48.650;9.290;2023-11-18T15:25:39;7.60;90.90
57857;DHT22;43683;48.650;9.290;2023-11-18T15:28:06;7.50;90.80
57857;DHT22;43683;48.650;9.290;2023-11-18T15:30:41;7.50;90.80
57857;DHT22;43683;48.650;9.290;2023-11-18T15:33:07;7.50;90.70
57857;DHT22;43683;48.650;9.290;2023-11-18T15:35:36;7.40;90.70
57857;DHT22;43683;48.650;9.290;2023-11-18T15:38:06;7.40;90.70
57857;DHT22;43683;48.650;9.290;2023-11-18T15:40:34;7.40;90.80
57857;DHT22;43683;48.650;9.290;2023-11-18T15:43:03;7.40;90.80
57857;DHT22;43683;48.650;9.290;2023-11-18T15:45:31;7.30;90.80
57857;DHT22;43683;48.650;9.290;2023-11-18T15:47:58;7.30;90.80
57857;DHT22;43683;48.650;9.290;2023-11-18T15:50:26;7.30;90.80
57857;DHT22;43683;48.650;9.290;2023-11-18T15:52:54;7.30;90.80
57857;DHT22;43683;48.650;9.290;2023-11-18T15:55:21;7.30;90.80
57857;DHT22;43683;48.650;9.290;2023-11-18T15:57:49;7.30;90.80
57857;DHT22;43683;48.650;9.290;2023-11-18T16:00:26;7.30;90.70
57857;DHT22;43683;48.650;9.290;2023-11-18T16:03:00;7.30;90.60
57857;DHT22;43683;48.650;9.290;2023-11-18T16:05:28;7.30;90.40
57857;DHT22;43683;48.650;9.290;2023-11-18T16:07:58;7.30;90.40